Dubois, Wyoming
Current Conditions -  °F | °C
As of 2:15 AM on Thursday 27 Nov 2014 (Local Time) from KDUB Reporting Station
Clear Clear  
Wind Chill: 27°   Ceiling: Unl
Heat Index: 36°   Visibility: 10mi
Dew Point: 25°   Wind: 13mph
Humidity: 65%   Direction: 320°NW
Pressure: 30.21"   Gusts: 21mph
Location:  43.53°N, 109.63°W
Report Text: KDUB 270915Z AUTO 32011G18KT 10SM CLR 02/M04 A3021 RMK AO2
Loading
Personal Weather Stations






























Interactive Weather Map New forecast layout! Learn more

10-Day Weather Forecast

Advertisements
Track Severe Weather on mobile